sensor_id;sensor_type;location;lat;lon;timestamp;pressure;altitude;pressure_sealevel;temperature;humidity
64792;BME280;51226;47.504;19.074;2022-08-19T00:01:44;99674.03;;;28.33;40.49
64792;BME280;51226;47.504;19.074;2022-08-19T00:04:54;99670.75;;;28.26;40.53
64792;BME280;51226;47.504;19.074;2022-08-19T00:07:57;99676.19;;;28.24;40.68
64792;BME280;51226;47.504;19.074;2022-08-19T00:11:00;99679.84;;;28.23;40.88
64792;BME280;51226;47.504;19.074;2022-08-19T00:14:04;99675.53;;;28.19;41.01
64792;BME280;51226;47.504;19.074;2022-08-19T00:17:08;99687.28;;;28.17;41.18
64792;BME280;51226;47.504;19.074;2022-08-19T00:20:13;99676.69;;;28.14;41.48
64792;BME280;51226;47.504;19.074;2022-08-19T00:23:19;99671.34;;;28.14;41.55
64792;BME280;51226;47.504;19.074;2022-08-19T00:26:22;99672.34;;;28.11;41.65
64792;BME280;51226;47.504;19.074;2022-08-19T00:29:25;99675.81;;;28.13;41.36
64792;BME280;51226;47.504;19.074;2022-08-19T00:32:27;99674.28;;;28.07;41.39
64792;BME280;51226;47.504;19.074;2022-08-19T00:35:32;99673.56;;;28.04;41.45
64792;BME280;51226;47.504;19.074;2022-08-19T00:38:37;99671.03;;;28.01;41.50
64792;BME280;51226;47.504;19.074;2022-08-19T00:41:42;99679.44;;;28.12;41.05
64792;BME280;51226;47.504;19.074;2022-08-19T00:44:45;99680.06;;;27.98;41.64
64792;BME280;51226;47.504;19.074;2022-08-19T00:47:49;99672.25;;;27.94;41.91
64792;BME280;51226;47.504;19.074;2022-08-19T00:50:52;99674.06;;;27.91;41.80
64792;BME280;51226;47.504;19.074;2022-08-19T00:53:57;99674.38;;;27.85;42.07
64792;BME280;51226;47.504;19.074;2022-08-19T00:57:01;99662.69;;;27.86;42.10
64792;BME280;51226;47.504;19.074;2022-08-19T01:00:10;99661.75;;;27.87;42.21
64792;BME280;51226;47.504;19.074;2022-08-19T01:03:17;99666.25;;;27.87;41.94
64792;BME280;51226;47.504;19.074;2022-08-19T01:06:21;99660.19;;;27.83;42.07
64792;BME280;51226;47.504;19.074;2022-08-19T01:09:23;99660.44;;;27.77;42.37
64792;BME280;51226;47.504;19.074;2022-08-19T01:12:27;99656.97;;;27.75;42.44
64792;BME280;51226;47.504;19.074;2022-08-19T01:15:48;99657.09;;;27.72;42.58
64792;BME280;51226;47.504;19.074;2022-08-19T01:18:52;99667.81;;;27.72;42.69
64792;BME280;51226;47.504;19.074;2022-08-19T01:22:01;99668.81;;;27.69;42.74
64792;BME280;51226;47.504;19.074;2022-08-19T01:25:22;99661.78;;;27.67;42.91
64792;BME280;51226;47.504;19.074;2022-08-19T01:28:27;99659.25;;;27.64;43.07
64792;BME280;51226;47.504;19.074;2022-08-19T01:31:41;99659.25;;;27.64;43.10
64792;BME280;51226;47.504;19.074;2022-08-19T01:34:44;99648.78;;;27.58;43.12
64792;BME280;51226;47.504;19.074;2022-08-19T01:37:55;99660.53;;;27.55;43.27
64792;BME280;51226;47.504;19.074;2022-08-19T01:40:58;99652.63;;;27.52;43.38
64792;BME280;51226;47.504;19.074;2022-08-19T01:44:04;99648.25;;;27.49;43.51
64792;BME280;51226;47.504;19.074;2022-08-19T01:47:20;99636.75;;;27.47;43.50
64792;BME280;51226;47.504;19.074;2022-08-19T01:50:23;99639.44;;;27.47;43.56
64792;BME280;51226;47.504;19.074;2022-08-19T01:53:26;99648.38;;;27.46;43.74
64792;BME280;51226;47.504;19.074;2022-08-19T01:56:35;99642.78;;;27.52;43.82
64792;BME280;51226;47.504;19.074;2022-08-19T01:59:39;99631.53;;;27.44;44.15
64792;BME280;51226;47.504;19.074;2022-08-19T02:02:42;99624.44;;;27.43;44.23
64792;BME280;51226;47.504;19.074;2022-08-19T02:05:45;99619.28;;;27.39;44.44
64792;BME280;51226;47.504;19.074;2022-08-19T02:08:48;99628.25;;;27.38;44.58
64792;BME280;51226;47.504;19.074;2022-08-19T02:11:53;99632.19;;;27.29;44.99
64792;BME280;51226;47.504;19.074;2022-08-19T02:14:56;99627.69;;;27.29;45.14
64792;BME280;51226;47.504;19.074;2022-08-19T02:17:58;99623.91;;;27.35;44.91
64792;BME280;51226;47.504;19.074;2022-08-19T02:21:01;99607.59;;;27.19;45.17
64792;BME280;51226;47.504;19.074;2022-08-19T02:24:04;99625.34;;;27.22;45.16
64792;BME280;51226;47.504;19.074;2022-08-19T02:27:07;99620.50;;;27.09;45.47
64792;BME280;51226;47.504;19.074;2022-08-19T02:30:13;99619.00;;;27.02;45.77
64792;BME280;51226;47.504;19.074;2022-08-19T02:33:18;99608.50;;;26.97;45.96
64792;BME280;51226;47.504;19.074;2022-08-19T02:36:21;99605.03;;;26.95;46.05
64792;BME280;51226;47.504;19.074;2022-08-19T02:39:23;99604.28;;;26.92;46.10
64792;BME280;51226;47.504;19.074;2022-08-19T02:42:26;99618.66;;;26.89;46.17
64792;BME280;51226;47.504;19.074;2022-08-19T02:45:34;99620.47;;;26.89;46.24
64792;BME280;51226;47.504;19.074;2022-08-19T02:48:41;99625.94;;;26.86;46.20
64792;BME280;51226;47.504;19.074;2022-08-19T02:51:45;99629.69;;;26.82;46.28
64792;BME280;51226;47.504;19.074;2022-08-19T02:54:49;99632.22;;;26.85;46.22
64792;BME280;51226;47.504;19.074;2022-08-19T02:57:52;99634.38;;;26.76;46.57
64792;BME280;51226;47.504;19.074;2022-08-19T03:00:55;99644.28;;;26.73;46.74
64792;BME280;51226;47.504;19.074;2022-08-19T03:04:02;99647.97;;;26.70;46.88
64792;BME280;51226;47.504;19.074;2022-08-19T03:07:05;99661.59;;;26.64;47.16
64792;BME280;51226;47.504;19.074;2022-08-19T03:10:12;99650.97;;;26.61;47.35
64792;BME280;51226;47.504;19.074;2022-08-19T03:13:17;99656.34;;;26.61;47.42
64792;BME280;51226;47.504;19.074;2022-08-19T03:16:21;99654.56;;;26.61;47.57
64792;BME280;51226;47.504;19.074;2022-08-19T03:19:25;99656.44;;;26.58;47.76
64792;BME280;51226;47.504;19.074;2022-08-19T03:22:27;99664.69;;;26.53;47.92
64792;BME280;51226;47.504;19.074;2022-08-19T03:25:36;99663.94;;;26.50;48.01
64792;BME280;51226;47.504;19.074;2022-08-19T03:28:40;99674.63;;;26.50;48.16
64792;BME280;51226;47.504;19.074;2022-08-19T03:31:43;99672.87;;;26.49;48.20
64792;BME280;51226;47.504;19.074;2022-08-19T03:34:54;99668.50;;;26.46;48.28
64792;BME280;51226;47.504;19.074;2022-08-19T03:37:59;99669.50;;;26.43;48.21
64792;BME280;51226;47.504;19.074;2022-08-19T03:41:03;99673.91;;;26.44;48.09
64792;BME280;51226;47.504;19.074;2022-08-19T03:44:09;99685.69;;;26.40;48.16
64792;BME280;51226;47.504;19.074;2022-08-19T03:47:19;99676.16;;;26.33;48.22
64792;BME280;51226;47.504;19.074;2022-08-19T03:50:21;99671.84;;;26.29;48.30
64792;BME280;51226;47.504;19.074;2022-08-19T03:53:27;99683.53;;;26.27;48.45
64792;BME280;51226;47.504;19.074;2022-08-19T03:56:30;99686.16;;;26.28;48.41
64792;BME280;51226;47.504;19.074;2022-08-19T03:59:35;99682.53;;;26.29;48.34
64792;BME280;51226;47.504;19.074;2022-08-19T04:02:38;99696.75;;;26.31;48.14
64792;BME280;51226;47.504;19.074;2022-08-19T04:05:41;99693.12;;;26.32;48.00
64792;BME280;51226;47.504;19.074;2022-08-19T04:08:45;99690.75;;;26.24;48.25
64792;BME280;51226;47.504;19.074;2022-08-19T04:11:52;99689.69;;;26.29;48.04
64792;BME280;51226;47.504;19.074;2022-08-19T04:14:56;99699.53;;;26.28;48.12
64792;BME280;51226;47.504;19.074;2022-08-19T04:17:59;99703.91;;;26.29;48.11
64792;BME280;51226;47.504;19.074;2022-08-19T04:21:01;99708.41;;;26.29;48.07
64792;BME280;51226;47.504;19.074;2022-08-19T04:24:05;99714.62;;;26.29;47.95
64792;BME280;51226;47.504;19.074;2022-08-19T04:27:09;99718.81;;;26.36;47.72
64792;BME280;51226;47.504;19.074;2022-08-19T04:30:13;99705.25;;;26.41;48.01
64792;BME280;51226;47.504;19.074;2022-08-19T04:33:18;99714.19;;;26.41;47.86
64792;BME280;51226;47.504;19.074;2022-08-19T04:36:32;99710.44;;;26.46;47.89
64792;BME280;51226;47.504;19.074;2022-08-19T04:39:35;99718.91;;;26.57;47.79
64792;BME280;51226;47.504;19.074;2022-08-19T04:43:03;99722.41;;;26.59;47.62
64792;BME280;51226;47.504;19.074;2022-08-19T04:46:09;99727.19;;;26.51;47.74
64792;BME280;51226;47.504;19.074;2022-08-19T04:49:33;99729.63;;;26.57;47.47
64792;BME280;51226;47.504;19.074;2022-08-19T04:52:37;99725.03;;;26.60;47.40
64792;BME280;51226;47.504;19.074;2022-08-19T04:55:42;99724.97;;;26.62;47.29
64792;BME280;51226;47.504;19.074;2022-08-19T04:58:44;99715.72;;;26.71;47.32
64792;BME280;51226;47.504;19.074;2022-08-19T05:01:48;99712.75;;;26.78;47.25
64792;BME280;51226;47.504;19.074;2022-08-19T05:04:59;99721.34;;;26.87;47.01
64792;BME280;51226;47.504;19.074;2022-08-19T05:08:03;99725.69;;;26.89;46.99
64792;BME280;51226;47.504;19.074;2022-08-19T05:14:16;99721.03;;;26.94;46.69
64792;BME280;51226;47.504;19.074;2022-08-19T05:17:19;99723.78;;;26.93;46.65
64792;BME280;51226;47.504;19.074;2022-08-19T05:20:32;99730.81;;;26.95;46.45
64792;BME280;51226;47.504;19.074;2022-08-19T05:23:54;99730.69;;;26.98;46.51
64792;BME280;51226;47.504;19.074;2022-08-19T05:26:57;99722.09;;;27.12;46.04
64792;BME280;51226;47.504;19.074;2022-08-19T05:30:00;99731.81;;;27.15;46.02
64792;BME280;51226;47.504;19.074;2022-08-19T05:33:04;99726.94;;;27.25;45.82
64792;BME280;51226;47.504;19.074;2022-08-19T05:36:06;99724.78;;;27.34;45.65
64792;BME280;51226;47.504;19.074;2022-08-19T05:39:14;99725.38;;;27.41;45.38
64792;BME280;51226;47.504;19.074;2022-08-19T05:42:17;99724.34;;;27.45;45.45
64792;BME280;51226;47.504;19.074;2022-08-19T05:45:22;99729.16;;;27.58;44.90
64792;BME280;51226;47.504;19.074;2022-08-19T05:48:25;99720.00;;;27.63;44.88
64792;BME280;51226;47.504;19.074;2022-08-19T05:51:29;99723.19;;;27.71;44.57
64792;BME280;51226;47.504;19.074;2022-08-19T05:54:32;99730.06;;;27.79;44.31
64792;BME280;51226;47.504;19.074;2022-08-19T05:57:35;99733.59;;;27.79;44.27
64792;BME280;51226;47.504;19.074;2022-08-19T06:00:37;99724.28;;;27.88;43.98
64792;BME280;51226;47.504;19.074;2022-08-19T06:03:40;99729.41;;;27.94;43.92
64792;BME280;51226;47.504;19.074;2022-08-19T06:06:43;99723.97;;;27.96;43.70
64792;BME280;51226;47.504;19.074;2022-08-19T06:09:46;99734.28;;;28.05;43.51
64792;BME280;51226;47.504;19.074;2022-08-19T06:13:02;99726.75;;;28.13;43.39
64792;BME280;51226;47.504;19.074;2022-08-19T06:16:06;99723.41;;;28.28;43.05
64792;BME280;51226;47.504;19.074;2022-08-19T06:19:14;99728.84;;;28.46;42.54
64792;BME280;51226;47.504;19.074;2022-08-19T06:22:18;99724.81;;;28.56;42.22
64792;BME280;51226;47.504;19.074;2022-08-19T06:25:21;99730.81;;;28.61;42.22
64792;BME280;51226;47.504;19.074;2022-08-19T06:28:24;99725.09;;;28.69;42.04
64792;BME280;51226;47.504;19.074;2022-08-19T06:31:28;99730.91;;;28.79;41.77
64792;BME280;51226;47.504;19.074;2022-08-19T06:34:33;99720.00;;;29.01;41.07
64792;BME280;51226;47.504;19.074;2022-08-19T06:37:37;99714.78;;;29.17;40.89
64792;BME280;51226;47.504;19.074;2022-08-19T06:40:45;99698.84;;;29.49;39.95
64792;BME280;51226;47.504;19.074;2022-08-19T06:43:47;99698.81;;;29.66;39.79
64792;BME280;51226;47.504;19.074;2022-08-19T06:46:56;99713.16;;;29.84;39.32
64792;BME280;51226;47.504;19.074;2022-08-19T06:49:59;99709.47;;;30.03;38.85
64792;BME280;51226;47.504;19.074;2022-08-19T06:53:08;99710.81;;;30.11;38.92
64792;BME280;51226;47.504;19.074;2022-08-19T06:56:11;99708.62;;;30.36;38.35
64792;BME280;51226;47.504;19.074;2022-08-19T06:59:19;99710.84;;;30.61;37.97
64792;BME280;51226;47.504;19.074;2022-08-19T07:02:22;99710.78;;;30.94;36.97
64792;BME280;51226;47.504;19.074;2022-08-19T07:05:29;99713.44;;;31.26;36.37
64792;BME280;51226;47.504;19.074;2022-08-19T07:08:33;99705.69;;;31.50;35.94
64792;BME280;51226;47.504;19.074;2022-08-19T07:11:37;99719.75;;;31.71;35.51
64792;BME280;51226;47.504;19.074;2022-08-19T07:14:40;99722.56;;;31.99;35.11
64792;BME280;51226;47.504;19.074;2022-08-19T07:17:46;99729.75;;;32.28;34.31
64792;BME280;51226;47.504;19.074;2022-08-19T07:21:06;99732.84;;;32.65;33.88
64792;BME280;51226;47.504;19.074;2022-08-19T07:24:11;99736.28;;;33.09;32.33
64792;BME280;51226;47.504;19.074;2022-08-19T07:27:14;99743.94;;;33.17;32.08
64792;BME280;51226;47.504;19.074;2022-08-19T07:30:17;99741.16;;;33.31;32.08
64792;BME280;51226;47.504;19.074;2022-08-19T07:33:24;99735.44;;;33.63;31.17
64792;BME280;51226;47.504;19.074;2022-08-19T07:36:29;99728.13;;;33.91;31.33
64792;BME280;51226;47.504;19.074;2022-08-19T07:39:35;99730.53;;;34.21;30.57
64792;BME280;51226;47.504;19.074;2022-08-19T07:42:41;99728.88;;;34.57;30.28
64792;BME280;51226;47.504;19.074;2022-08-19T07:45:48;99726.41;;;34.91;29.21
64792;BME280;51226;47.504;19.074;2022-08-19T07:48:54;99725.94;;;35.21;29.34
64792;BME280;51226;47.504;19.074;2022-08-19T07:52:00;99721.59;;;35.67;28.78
64792;BME280;51226;47.504;19.074;2022-08-19T07:55:07;99716.12;;;36.03;27.75
64792;BME280;51226;47.504;19.074;2022-08-19T07:58:32;99714.09;;;36.29;26.44
64792;BME280;51226;47.504;19.074;2022-08-19T08:01:36;99711.94;;;36.66;25.91
64792;BME280;51226;47.504;19.074;2022-08-19T08:04:43;99724.88;;;36.97;25.37
64792;BME280;51226;47.504;19.074;2022-08-19T08:08:04;99723.94;;;37.30;25.03
64792;BME280;51226;47.504;19.074;2022-08-19T08:11:29;99716.84;;;37.71;24.54
64792;BME280;51226;47.504;19.074;2022-08-19T08:14:38;99714.28;;;38.22;24.02
64792;BME280;51226;47.504;19.074;2022-08-19T08:17:45;99720.38;;;38.76;23.31
64792;BME280;51226;47.504;19.074;2022-08-19T08:20:53;99718.47;;;39.07;22.57
64792;BME280;51226;47.504;19.074;2022-08-19T08:23:56;99723.78;;;39.18;22.61
64792;BME280;51226;47.504;19.074;2022-08-19T08:27:00;99727.81;;;39.34;22.24
64792;BME280;51226;47.504;19.074;2022-08-19T08:30:03;99729.25;;;39.57;21.87
64792;BME280;51226;47.504;19.074;2022-08-19T08:33:12;99716.88;;;39.73;21.61
64792;BME280;51226;47.504;19.074;2022-08-19T08:36:21;99715.12;;;40.01;21.07
64792;BME280;51226;47.504;19.074;2022-08-19T08:39:23;99711.00;;;40.25;21.00
64792;BME280;51226;47.504;19.074;2022-08-19T08:42:34;99710.72;;;40.65;20.57
64792;BME280;51226;47.504;19.074;2022-08-19T08:45:42;99709.78;;;41.02;20.06
64792;BME280;51226;47.504;19.074;2022-08-19T08:52:07;99697.19;;;41.90;19.34
64792;BME280;51226;47.504;19.074;2022-08-19T08:55:15;99701.56;;;42.35;18.67
64792;BME280;51226;47.504;19.074;2022-08-19T08:58:29;99685.94;;;42.62;18.59
64792;BME280;51226;47.504;19.074;2022-08-19T09:01:34;99677.94;;;42.93;17.79
64792;BME280;51226;47.504;19.074;2022-08-19T09:04:38;99677.69;;;43.21;17.53
64792;BME280;51226;47.504;19.074;2022-08-19T09:07:53;99684.75;;;43.40;17.24
64792;BME280;51226;47.504;19.074;2022-08-19T09:10:59;99690.06;;;43.49;16.72
64792;BME280;51226;47.504;19.074;2022-08-19T09:17:30;99682.97;;;43.96;16.38
64792;BME280;51226;47.504;19.074;2022-08-19T09:20:37;99679.78;;;44.24;16.20
64792;BME280;51226;47.504;19.074;2022-08-19T09:23:44;99675.91;;;44.50;15.72
64792;BME280;51226;47.504;19.074;2022-08-19T09:26:53;99671.97;;;44.44;16.11
64792;BME280;51226;47.504;19.074;2022-08-19T09:29:58;99675.06;;;44.49;16.04
64792;BME280;51226;47.504;19.074;2022-08-19T09:33:01;99673.00;;;44.83;15.55
64792;BME280;51226;47.504;19.074;2022-08-19T09:36:09;99663.91;;;45.05;15.44
64792;BME280;51226;47.504;19.074;2022-08-19T09:39:12;99667.03;;;45.48;14.99
64792;BME280;51226;47.504;19.074;2022-08-19T09:42:18;99653.97;;;45.80;14.80
64792;BME280;51226;47.504;19.074;2022-08-19T09:45:34;99652.16;;;46.02;14.82
64792;BME280;51226;47.504;19.074;2022-08-19T09:48:39;99642.25;;;46.38;14.40
64792;BME280;51226;47.504;19.074;2022-08-19T09:51:42;99641.59;;;46.36;14.54
64792;BME280;51226;47.504;19.074;2022-08-19T09:54:52;99633.59;;;46.41;14.33
64792;BME280;51226;47.504;19.074;2022-08-19T09:57:55;99643.09;;;46.68;13.96
64792;BME280;51226;47.504;19.074;2022-08-19T10:00:59;99635.53;;;46.77;13.83
64792;BME280;51226;47.504;19.074;2022-08-19T10:04:03;99629.09;;;46.91;13.56
64792;BME280;51226;47.504;19.074;2022-08-19T10:07:21;99618.66;;;47.08;13.69
64792;BME280;51226;47.504;19.074;2022-08-19T10:10:38;99616.34;;;47.12;13.49
64792;BME280;51226;47.504;19.074;2022-08-19T10:13:45;99626.19;;;47.21;13.16
64792;BME280;51226;47.504;19.074;2022-08-19T10:16:48;99615.72;;;47.38;13.36
64792;BME280;51226;47.504;19.074;2022-08-19T10:19:52;99626.19;;;47.43;13.30
64792;BME280;51226;47.504;19.074;2022-08-19T10:22:57;99622.38;;;47.44;13.30
64792;BME280;51226;47.504;19.074;2022-08-19T10:26:06;99608.59;;;47.50;12.72
64792;BME280;51226;47.504;19.074;2022-08-19T10:29:11;99605.25;;;47.55;12.73
64792;BME280;51226;47.504;19.074;2022-08-19T10:32:33;99607.13;;;47.55;12.70
64792;BME280;51226;47.504;19.074;2022-08-19T10:35:36;99602.47;;;47.27;12.90
64792;BME280;51226;47.504;19.074;2022-08-19T10:39:02;99601.59;;;47.26;13.15
64792;BME280;51226;47.504;19.074;2022-08-19T10:42:07;99596.09;;;47.26;13.25
64792;BME280;51226;47.504;19.074;2022-08-19T10:45:10;99611.63;;;47.06;13.28
64792;BME280;51226;47.504;19.074;2022-08-19T10:48:14;99602.91;;;46.87;13.26
64792;BME280;51226;47.504;19.074;2022-08-19T10:51:21;99603.84;;;46.73;13.42
64792;BME280;51226;47.504;19.074;2022-08-19T10:54:50;99602.84;;;46.81;13.65
64792;BME280;51226;47.504;19.074;2022-08-19T10:58:16;99606.59;;;47.16;13.40
64792;BME280;51226;47.504;19.074;2022-08-19T11:01:26;99612.00;;;47.03;13.18
64792;BME280;51226;47.504;19.074;2022-08-19T11:04:29;99599.47;;;47.00;13.21
64792;BME280;51226;47.504;19.074;2022-08-19T11:07:32;99592.41;;;46.98;13.16
64792;BME280;51226;47.504;19.074;2022-08-19T11:10:35;99604.97;;;47.22;13.08
64792;BME280;51226;47.504;19.074;2022-08-19T11:13:40;99603.34;;;47.06;13.10
64792;BME280;51226;47.504;19.074;2022-08-19T11:16:45;99601.47;;;47.13;13.00
64792;BME280;51226;47.504;19.074;2022-08-19T11:19:47;99597.53;;;47.22;12.98
64792;BME280;51226;47.504;19.074;2022-08-19T11:22:52;99598.84;;;47.26;13.01
64792;BME280;51226;47.504;19.074;2022-08-19T11:25:57;99603.84;;;46.94;12.92
64792;BME280;51226;47.504;19.074;2022-08-19T11:29:07;99601.34;;;46.78;13.15
64792;BME280;51226;47.504;19.074;2022-08-19T11:32:13;99597.87;;;46.91;13.26
64792;BME280;51226;47.504;19.074;2022-08-19T11:35:17;99573.78;;;47.06;13.23
64792;BME280;51226;47.504;19.074;2022-08-19T11:38:27;99592.94;;;47.08;13.13
64792;BME280;51226;47.504;19.074;2022-08-19T11:41:29;99594.97;;;46.77;13.04
64792;BME280;51226;47.504;19.074;2022-08-19T11:44:34;99593.41;;;46.68;13.01
64792;BME280;51226;47.504;19.074;2022-08-19T11:47:38;99590.78;;;46.60;13.21
64792;BME280;51226;47.504;19.074;2022-08-19T11:50:41;99576.34;;;46.65;13.17
64792;BME280;51226;47.504;19.074;2022-08-19T11:53:46;99573.41;;;46.66;13.01
64792;BME280;51226;47.504;19.074;2022-08-19T11:56:50;99570.44;;;46.68;13.23
64792;BME280;51226;47.504;19.074;2022-08-19T11:59:53;99570.78;;;46.80;12.98
64792;BME280;51226;47.504;19.074;2022-08-19T12:02:56;99564.00;;;46.82;13.05
64792;BME280;51226;47.504;19.074;2022-08-19T12:06:06;99564.88;;;46.61;13.01
64792;BME280;51226;47.504;19.074;2022-08-19T12:09:12;99548.25;;;46.39;13.37
64792;BME280;51226;47.504;19.074;2022-08-19T12:12:17;99547.47;;;46.09;13.69
64792;BME280;51226;47.504;19.074;2022-08-19T12:15:20;99550.47;;;45.78;13.96
64792;BME280;51226;47.504;19.074;2022-08-19T12:18:25;99557.28;;;45.67;13.87
64792;BME280;51226;47.504;19.074;2022-08-19T12:21:27;99550.94;;;45.37;13.96
64792;BME280;51226;47.504;19.074;2022-08-19T12:24:32;99559.31;;;44.59;14.61
64792;BME280;51226;47.504;19.074;2022-08-19T12:27:34;99556.81;;;44.18;15.10
64792;BME280;51226;47.504;19.074;2022-08-19T12:33:59;99557.22;;;43.42;16.44
64792;BME280;51226;47.504;19.074;2022-08-19T12:37:06;99551.56;;;43.36;15.63
64792;BME280;51226;47.504;19.074;2022-08-19T12:40:09;99568.34;;;42.75;16.12
64792;BME280;51226;47.504;19.074;2022-08-19T12:43:14;99555.16;;;42.62;16.14
64792;BME280;51226;47.504;19.074;2022-08-19T12:46:21;99559.00;;;42.35;16.22
64792;BME280;51226;47.504;19.074;2022-08-19T12:49:34;99546.88;;;41.95;16.77
64792;BME280;51226;47.504;19.074;2022-08-19T12:52:57;99545.69;;;41.97;16.54
64792;BME280;51226;47.504;19.074;2022-08-19T12:56:02;99532.25;;;41.43;17.10
64792;BME280;51226;47.504;19.074;2022-08-19T12:59:08;99532.97;;;41.54;17.33
64792;BME280;51226;47.504;19.074;2022-08-19T13:02:14;99526.50;;;41.97;16.88
64792;BME280;51226;47.504;19.074;2022-08-19T13:05:19;99526.63;;;42.22;16.51
64792;BME280;51226;47.504;19.074;2022-08-19T13:08:26;99526.78;;;42.20;16.59
64792;BME280;51226;47.504;19.074;2022-08-19T13:11:32;99527.84;;;41.93;16.80
64792;BME280;51226;47.504;19.074;2022-08-19T13:14:37;99522.00;;;41.88;16.77
64792;BME280;51226;47.504;19.074;2022-08-19T13:17:42;99532.81;;;41.90;16.50
64792;BME280;51226;47.504;19.074;2022-08-19T13:20:47;99523.28;;;42.02;16.41
64792;BME280;51226;47.504;19.074;2022-08-19T13:23:54;99513.00;;;42.04;16.64
64792;BME280;51226;47.504;19.074;2022-08-19T13:27:02;99523.25;;;41.94;16.35
64792;BME280;51226;47.504;19.074;2022-08-19T13:30:14;99513.13;;;41.60;16.72
64792;BME280;51226;47.504;19.074;2022-08-19T13:33:36;99492.94;;;41.00;17.59
64792;BME280;51226;47.504;19.074;2022-08-19T13:36:38;99502.41;;;40.88;17.42
64792;BME280;51226;47.504;19.074;2022-08-19T13:39:44;99503.34;;;40.97;17.59
64792;BME280;51226;47.504;19.074;2022-08-19T13:42:53;99501.78;;;40.76;17.54
64792;BME280;51226;47.504;19.074;2022-08-19T13:45:56;99503.16;;;40.26;17.91
64792;BME280;51226;47.504;19.074;2022-08-19T13:48:59;99496.81;;;40.08;18.10
64792;BME280;51226;47.504;19.074;2022-08-19T13:52:04;99495.69;;;40.28;18.11
64792;BME280;51226;47.504;19.074;2022-08-19T13:55:09;99495.59;;;39.92;18.30
64792;BME280;51226;47.504;19.074;2022-08-19T13:58:13;99489.41;;;39.35;18.84
64792;BME280;51226;47.504;19.074;2022-08-19T14:01:20;99475.75;;;38.68;19.48
64792;BME280;51226;47.504;19.074;2022-08-19T14:04:26;99470.00;;;38.51;19.74
64792;BME280;51226;47.504;19.074;2022-08-19T14:07:32;99482.34;;;38.65;19.71
64792;BME280;51226;47.504;19.074;2022-08-19T14:10:35;99492.25;;;38.76;21.08
64792;BME280;51226;47.504;19.074;2022-08-19T14:13:40;99498.09;;;38.52;22.99
64792;BME280;51226;47.504;19.074;2022-08-19T14:16:48;99500.09;;;38.40;23.69
64792;BME280;51226;47.504;19.074;2022-08-19T14:19:57;99512.44;;;38.25;24.07
64792;BME280;51226;47.504;19.074;2022-08-19T14:23:12;99503.53;;;38.13;24.14
64792;BME280;51226;47.504;19.074;2022-08-19T14:26:17;99504.97;;;37.76;24.59
64792;BME280;51226;47.504;19.074;2022-08-19T14:29:20;99509.19;;;37.59;24.82
64792;BME280;51226;47.504;19.074;2022-08-19T14:32:23;99515.34;;;37.61;24.85
64792;BME280;51226;47.504;19.074;2022-08-19T14:35:31;99503.66;;;37.71;24.84
64792;BME280;51226;47.504;19.074;2022-08-19T14:38:37;99496.44;;;37.60;24.92
64792;BME280;51226;47.504;19.074;2022-08-19T14:41:41;99492.63;;;37.41;25.15
64792;BME280;51226;47.504;19.074;2022-08-19T14:44:44;99498.06;;;37.41;25.09
64792;BME280;51226;47.504;19.074;2022-08-19T14:47:47;99501.41;;;37.24;25.43
64792;BME280;51226;47.504;19.074;2022-08-19T14:50:50;99521.91;;;37.07;25.75
64792;BME280;51226;47.504;19.074;2022-08-19T14:53:53;99506.97;;;36.80;25.66
64792;BME280;51226;47.504;19.074;2022-08-19T14:56:56;99526.22;;;36.56;25.67
64792;BME280;51226;47.504;19.074;2022-08-19T14:59:59;99533.84;;;36.30;25.93
64792;BME280;51226;47.504;19.074;2022-08-19T15:03:02;99538.53;;;36.05;25.37
64792;BME280;51226;47.504;19.074;2022-08-19T15:06:05;99544.63;;;35.75;24.49
64792;BME280;51226;47.504;19.074;2022-08-19T15:09:09;99554.97;;;35.47;24.17
64792;BME280;51226;47.504;19.074;2022-08-19T15:12:12;99548.59;;;35.13;24.19
64792;BME280;51226;47.504;19.074;2022-08-19T15:15:23;99557.47;;;34.79;24.54
64792;BME280;51226;47.504;19.074;2022-08-19T15:18:26;99566.63;;;34.65;24.85
64792;BME280;51226;47.504;19.074;2022-08-19T15:21:29;99567.94;;;34.60;24.77
64792;BME280;51226;47.504;19.074;2022-08-19T15:24:33;99583.38;;;34.46;24.97
64792;BME280;51226;47.504;19.074;2022-08-19T15:27:50;99592.34;;;34.23;25.30
64792;BME280;51226;47.504;19.074;2022-08-19T15:30:54;99606.44;;;34.02;25.36
64792;BME280;51226;47.504;19.074;2022-08-19T15:33:56;99617.38;;;33.88;25.64
64792;BME280;51226;47.504;19.074;2022-08-19T15:37:02;99629.63;;;33.81;25.68
64792;BME280;51226;47.504;19.074;2022-08-19T15:40:07;99638.06;;;33.63;25.91
64792;BME280;51226;47.504;19.074;2022-08-19T15:43:11;99634.34;;;33.51;25.98
64792;BME280;51226;47.504;19.074;2022-08-19T15:46:18;99619.41;;;33.33;26.48
64792;BME280;51226;47.504;19.074;2022-08-19T15:49:22;99610.31;;;33.21;27.05
64792;BME280;51226;47.504;19.074;2022-08-19T15:52:24;99573.56;;;33.18;26.92
64792;BME280;51226;47.504;19.074;2022-08-19T15:55:45;99551.47;;;33.12;27.02
64792;BME280;51226;47.504;19.074;2022-08-19T15:58:50;99562.69;;;33.05;27.12
64792;BME280;51226;47.504;19.074;2022-08-19T16:02:11;99558.78;;;32.97;27.35
64792;BME280;51226;47.504;19.074;2022-08-19T16:05:34;99559.84;;;32.94;27.63
64792;BME280;51226;47.504;19.074;2022-08-19T16:08:59;99555.97;;;32.85;28.21
64792;BME280;51226;47.504;19.074;2022-08-19T16:12:04;99551.84;;;32.80;28.59
64792;BME280;51226;47.504;19.074;2022-08-19T16:15:09;99554.84;;;32.75;28.50
64792;BME280;51226;47.504;19.074;2022-08-19T16:18:15;99535.00;;;32.76;28.33
64792;BME280;51226;47.504;19.074;2022-08-19T16:21:19;99523.84;;;32.68;28.62
64792;BME280;51226;47.504;19.074;2022-08-19T16:24:25;99530.19;;;32.67;28.84
64792;BME280;51226;47.504;19.074;2022-08-19T16:27:28;99526.09;;;32.61;29.07